Time,TemperatureF,DewpointF,PressureIn,WindDirection,WindDirectionDegrees,WindSpeedMPH,WindSpeedGustMPH,Humidity,HourlyPrecipIn,Conditions,Clouds,dailyrainin,SoftwareType,DateUTC
2013-11-25 08:19:00,29.3,-3.9,29.18,North,4,0.0,0.0,23,0.00,,,0.00,VWS V13.01,2013-11-25 14:19:00,
2013-11-25 08:20:00,29.3,-3.9,29.18,North,4,0.0,2.2,23,0.00,,,0.00,VWS V13.01,2013-11-25 14:20:00,
2013-11-25 08:21:00,29.3,-3.9,29.18,North,4,0.0,0.0,23,0.00,,,0.00,VWS V13.01,2013-11-25 14:21:00,
2013-11-25 08:24:00,29.5,-3.7,29.18,North,4,0.0,0.0,23,0.00,,,0.00,VWS V13.01,2013-11-25 14:24:00,
2013-11-25 08:29:00,29.5,-3.7,29.18,North,4,0.0,0.0,23,0.00,,,0.00,VWS V13.01,2013-11-25 14:29:00,
2013-11-25 08:34:00,29.5,-3.7,29.18,North,3,0.0,0.0,23,0.00,,,0.00,VWS V13.01,2013-11-25 14:34:00,
2013-11-25 08:39:00,29.5,-3.7,29.18,North,4,0.0,0.0,23,0.00,,,0.00,VWS V13.01,2013-11-25 14:39:00,
2013-11-25 08:44:00,29.5,-3.7,29.18,North,4,0.0,0.0,23,0.00,,,0.00,VWS V13.01,2013-11-25 14:44:00,
2013-11-25 08:49:00,29.7,-3.6,29.18,North,4,0.0,0.0,23,0.00,,,0.00,VWS V13.01,2013-11-25 14:49:00,
2013-11-25 08:54:00,29.7,-3.6,29.18,North,4,4.0,4.0,23,0.00,,,0.00,VWS V13.01,2013-11-25 14:54:00,
2013-11-25 08:59:00,29.8,-3.4,29.18,North,5,5.8,5.8,23,0.00,,,0.00,VWS V13.01,2013-11-25 14:59:00,
2013-11-25 09:04:00,29.8,-3.4,29.21,North,5,0.0,0.0,23,0.00,,,0.00,VWS V13.01,2013-11-25 15:04:00,
2013-11-25 09:09:00,30.0,-3.3,29.21,North,5,0.0,0.0,23,0.00,,,0.00,VWS V13.01,2013-11-25 15:09:00,
2013-11-25 09:14:00,30.4,-3.0,29.21,North,5,0.0,0.0,23,0.00,,,0.00,VWS V13.01,2013-11-25 15:14:00,
2013-11-25 09:19:00,30.6,-2.8,29.18,North,5,0.0,0.0,23,0.00,,,0.00,VWS V13.01,2013-11-25 15:19:00,
2013-11-25 09:24:00,30.7,-2.7,29.18,North,5,8.7,8.7,23,0.00,,,0.00,VWS V13.01,2013-11-25 15:24:00,
2013-11-25 09:29:00,30.9,-2.5,29.18,North,5,5.4,8.1,23,0.00,,,0.00,VWS V13.01,2013-11-25 15:29:00,
2013-11-25 09:35:00,31.3,-2.2,29.18,North,5,0.0,0.0,23,0.00,,,0.00,VWS V13.01,2013-11-25 15:35:00,
2013-11-25 09:40:00,31.5,-2.0,29.18,North,5,0.0,0.0,23,0.00,,,0.00,VWS V13.01,2013-11-25 15:40:00,
2013-11-25 09:45:00,31.5,-2.0,29.18,North,5,7.6,8.7,23,0.00,,,0.00,VWS V13.01,2013-11-25 15:45:00,
2013-11-25 09:50:00,31.5,-2.0,29.18,North,5,0.0,0.0,23,0.00,,,0.00,VWS V13.01,2013-11-25 15:50:00,
2013-11-25 09:55:00,31.5,-2.0,29.18,North,4,5.4,5.4,23,0.00,,,0.00,VWS V13.01,2013-11-25 15:55:00,
2013-11-25 10:00:00,31.6,-1.9,29.18,North,4,7.6,7.6,23,0.00,,,0.00,VWS V13.01,2013-11-25 16:00:00,
2013-11-25 10:05:00,31.8,-1.8,29.18,North,5,0.0,0.0,23,0.00,,,0.00,VWS V13.01,2013-11-25 16:05:00,
2013-11-25 10:10:00,32.0,-1.6,29.18,North,5,0.0,0.0,23,0.00,,,0.00,VWS V13.01,2013-11-25 16:10:00,
2013-11-25 10:15:00,32.2,-1.4,29.21,North,5,5.4,8.3,23,0.00,,,0.00,VWS V13.01,2013-11-25 16:15:00,
2013-11-25 10:20:00,32.2,-1.4,29.21,North,4,0.0,0.0,23,0.00,,,0.00,VWS V13.01,2013-11-25 16:20:00,
2013-11-25 10:25:00,32.4,-1.3,29.21,North,5,6.3,10.5,23,0.00,,,0.00,VWS V13.01,2013-11-25 16:25:00,
2013-11-25 10:30:00,32.7,-1.0,29.18,North,5,2.2,2.2,23,0.00,,,0.00,VWS V13.01,2013-11-25 16:30:00,
2013-11-25 10:35:00,33.6,-0.2,29.18,North,5,3.1,3.1,23,0.00,,,0.00,VWS V13.01,2013-11-25 16:35:00,
2013-11-25 10:40:00,34.3,-0.6,29.18,North,6,5.8,5.8,22,0.00,,,0.00,VWS V13.01,2013-11-25 16:40:00,
2013-11-25 10:45:00,33.6,-0.2,29.18,North,3,8.3,8.3,23,0.00,,,0.00,VWS V13.01,2013-11-25 16:45:00,
2013-11-25 10:51:00,33.3,-0.5,29.18,North,4,6.3,8.7,23,0.00,,,0.00,VWS V13.01,2013-11-25 16:51:00,
2013-11-25 10:56:00,33.6,-0.2,29.18,North,4,5.4,5.8,23,0.00,,,0.00,VWS V13.01,2013-11-25 16:56:00,
2013-11-25 11:01:00,33.8,-1.0,29.18,North,5,7.6,7.6,22,0.00,,,0.00,VWS V13.01,2013-11-25 17:01:00,
2013-11-25 11:06:00,34.5,-0.4,29.18,North,5,7.6,8.1,22,0.00,,,0.00,VWS V13.01,2013-11-25 17:06:00,
2013-11-25 11:11:00,34.7,-0.2,29.18,North,4,0.0,5.8,22,0.00,,,0.00,VWS V13.01,2013-11-25 17:11:00,
2013-11-25 11:16:00,34.5,-0.4,29.18,North,5,5.8,8.7,22,0.00,,,0.00,VWS V13.01,2013-11-25 17:16:00,
2013-11-25 11:21:00,35.6,0.5,29.18,North,4,0.0,5.4,22,0.00,,,0.00,VWS V13.01,2013-11-25 17:21:00,
2013-11-25 11:26:00,36.5,1.3,29.18,North,4,0.0,8.1,22,0.00,,,0.00,VWS V13.01,2013-11-25 17:26:00,
2013-11-25 11:31:00,36.3,1.1,29.18,North,5,7.6,10.5,22,0.00,,,0.00,VWS V13.01,2013-11-25 17:31:00,
2013-11-25 11:36:00,35.4,0.4,29.18,North,5,7.6,10.1,22,0.00,,,0.00,VWS V13.01,2013-11-25 17:36:00,
2013-11-25 11:41:00,35.1,0.1,29.18,North,4,9.2,9.2,22,0.00,,,0.00,VWS V13.01,2013-11-25 17:41:00,
2013-11-25 11:46:00,35.2,0.2,29.15,North,4,0.0,0.0,22,0.00,,,0.00,VWS V13.01,2013-11-25 17:46:00,
2013-11-25 11:51:00,35.4,0.4,29.15,North,4,0.0,0.0,22,0.00,,,0.00,VWS V13.01,2013-11-25 17:51:00,
2013-11-25 11:56:00,35.6,0.5,29.15,North,4,0.0,0.0,22,0.00,,,0.00,VWS V13.01,2013-11-25 17:56:00,
2013-11-25 12:01:00,35.8,0.7,29.15,North,4,0.0,0.0,22,0.00,,,0.00,VWS V13.01,2013-11-25 18:01:00,
2013-11-25 12:06:00,36.1,1.0,29.15,North,4,0.0,0.0,22,0.00,,,0.00,VWS V13.01,2013-11-25 18:06:00,
2013-11-25 12:11:00,36.1,1.0,29.15,North,5,0.0,0.0,22,0.00,,,0.00,VWS V13.01,2013-11-25 18:11:00,
2013-11-25 12:16:00,36.1,1.0,29.15,North,4,5.8,6.3,22,0.00,,,0.00,VWS V13.01,2013-11-25 18:16:00,
2013-11-25 12:21:00,36.9,1.6,29.15,North,5,4.9,8.3,22,0.00,,,0.00,VWS V13.01,2013-11-25 18:21:00,
2013-11-25 12:26:00,37.4,1.0,29.15,North,4,0.0,0.0,21,0.00,,,0.00,VWS V13.01,2013-11-25 18:26:00,
2013-11-25 12:31:00,36.7,1.4,29.15,North,4,0.0,0.0,22,0.00,,,0.00,VWS V13.01,2013-11-25 18:31:00,
2013-11-25 12:37:00,36.1,1.0,29.15,North,5,5.8,5.8,22,0.00,,,0.00,VWS V13.01,2013-11-25 18:37:00,
2013-11-25 12:42:00,35.8,0.7,29.15,North,5,0.0,0.0,22,0.00,,,0.00,VWS V13.01,2013-11-25 18:42:00,
2013-11-25 12:47:00,36.0,0.8,29.15,North,3,0.0,2.2,22,0.00,,,0.00,VWS V13.01,2013-11-25 18:47:00,
2013-11-25 12:52:00,36.1,1.0,29.15,North,4,4.9,8.7,22,0.00,,,0.00,VWS V13.01,2013-11-25 18:52:00,
2013-11-25 12:57:00,36.0,0.8,29.15,North,4,0.0,0.0,22,0.00,,,0.00,VWS V13.01,2013-11-25 18:57:00,
2013-11-25 13:02:00,36.1,1.0,29.15,North,4,0.0,0.0,22,0.00,,,0.00,VWS V13.01,2013-11-25 19:02:00,
2013-11-25 13:07:00,36.5,1.3,29.15,North,4,0.0,0.0,22,0.00,,,0.00,VWS V13.01,2013-11-25 19:07:00,
2013-11-25 13:12:00,36.9,1.6,29.15,North,5,0.0,0.0,22,0.00,,,0.00,VWS V13.01,2013-11-25 19:12:00,
2013-11-25 13:17:00,37.6,1.2,29.15,North,4,0.0,2.7,21,0.00,,,0.00,VWS V13.01,2013-11-25 19:17:00,
2013-11-25 13:22:00,38.7,2.1,29.15,North,4,0.0,0.0,21,0.00,,,0.00,VWS V13.01,2013-11-25 19:22:00,
2013-11-25 13:27:00,38.7,2.1,29.15,North,4,0.0,2.2,21,0.00,,,0.00,VWS V13.01,2013-11-25 19:27:00,
2013-11-25 13:32:00,37.8,1.4,29.15,North,5,5.4,10.1,21,0.00,,,0.00,VWS V13.01,2013-11-25 19:32:00,
2013-11-25 13:37:00,37.2,1.9,29.15,North,5,0.0,4.0,22,0.00,,,0.00,VWS V13.01,2013-11-25 19:37:00,
2013-11-25 13:42:00,37.0,1.7,29.15,North,5,5.4,5.4,22,0.00,,,0.00,VWS V13.01,2013-11-25 19:42:00,
2013-11-25 13:47:00,36.9,1.6,29.15,North,5,5.8,8.1,22,0.00,,,0.00,VWS V13.01,2013-11-25 19:47:00,
2013-11-25 13:52:00,37.0,1.7,29.15,North,4,0.0,0.0,22,0.00,,,0.00,VWS V13.01,2013-11-25 19:52:00,
2013-11-25 13:57:00,36.9,1.6,29.15,North,4,4.0,7.6,22,0.00,,,0.00,VWS V13.01,2013-11-25 19:57:00,
2013-11-25 14:02:00,36.7,1.4,29.12,North,4,0.0,6.7,22,0.00,,,0.00,VWS V13.01,2013-11-25 20:02:00,
2013-11-25 14:07:00,36.5,1.3,29.12,North,4,3.6,8.3,22,0.00,,,0.00,VWS V13.01,2013-11-25 20:07:00,
2013-11-25 14:12:00,36.3,1.1,29.12,North,6,0.0,6.3,22,0.00,,,0.00,VWS V13.01,2013-11-25 20:12:00,
2013-11-25 14:17:00,36.5,1.3,29.12,North,5,0.0,0.0,22,0.00,,,0.00,VWS V13.01,2013-11-25 20:17:00,
2013-11-25 14:22:00,36.5,1.3,29.12,North,4,0.0,0.0,22,0.00,,,0.00,VWS V13.01,2013-11-25 20:22:00,
2013-11-25 14:27:00,36.7,1.4,29.12,North,4,0.0,6.3,22,0.00,,,0.00,VWS V13.01,2013-11-25 20:27:00,
2013-11-25 14:32:00,36.9,1.6,29.12,North,4,0.0,0.0,22,0.00,,,0.00,VWS V13.01,2013-11-25 20:32:00,
2013-11-25 14:37:00,37.4,1.0,29.12,North,5,0.0,0.0,21,0.00,,,0.00,VWS V13.01,2013-11-25 20:37:00,
2013-11-25 14:42:00,37.2,1.9,29.12,North,6,0.0,0.0,22,0.00,,,0.00,VWS V13.01,2013-11-25 20:42:00,
2013-11-25 14:47:00,37.0,1.7,29.15,North,5,0.0,0.0,22,0.00,,,0.00,VWS V13.01,2013-11-25 20:47:00,
2013-11-25 14:52:00,37.4,1.0,29.15,North,5,0.0,0.0,21,0.00,,,0.00,VWS V13.01,2013-11-25 20:52:00,
2013-11-25 14:57:00,38.1,1.6,29.15,North,5,0.0,0.0,21,0.00,,,0.00,VWS V13.01,2013-11-25 20:57:00,
2013-11-25 15:02:00,38.5,2.0,29.15,North,5,2.2,2.2,21,0.00,,,0.00,VWS V13.01,2013-11-25 21:02:00,
2013-11-25 15:07:00,38.1,1.6,29.15,North,5,6.3,6.3,21,0.00,,,0.00,VWS V13.01,2013-11-25 21:07:00,
2013-11-25 15:12:00,37.9,1.5,29.15,North,5,2.7,2.7,21,0.00,,,0.00,VWS V13.01,2013-11-25 21:12:00,
2013-11-25 15:17:00,38.1,1.6,29.15,North,5,0.0,0.0,21,0.00,,,0.00,VWS V13.01,2013-11-25 21:17:00,
2013-11-25 15:22:00,37.9,1.5,29.15,North,6,0.0,0.0,21,0.00,,,0.00,VWS V13.01,2013-11-25 21:22:00,
2013-11-25 15:27:00,37.4,1.0,29.15,North,5,6.3,6.3,21,0.00,,,0.00,VWS V13.01,2013-11-25 21:27:00,
2013-11-25 15:32:00,37.0,1.7,29.15,North,5,0.0,8.1,22,0.00,,,0.00,VWS V13.01,2013-11-25 21:32:00,
2013-11-25 15:37:00,36.9,1.6,29.15,North,5,0.0,2.2,22,0.00,,,0.00,VWS V13.01,2013-11-25 21:37:00,
2013-11-25 15:42:00,36.9,1.6,29.15,North,4,0.0,0.0,22,0.00,,,0.00,VWS V13.01,2013-11-25 21:42:00,
2013-11-25 15:47:00,36.9,1.6,29.15,North,4,0.0,0.0,22,0.00,,,0.00,VWS V13.01,2013-11-25 21:47:00,
2013-11-25 15:52:00,36.7,1.4,29.15,North,4,0.0,0.0,22,0.00,,,0.00,VWS V13.01,2013-11-25 21:52:00,
2013-11-25 15:57:00,36.7,1.4,29.15,North,4,0.0,0.0,22,0.00,,,0.00,VWS V13.01,2013-11-25 21:57:00,
2013-11-25 16:02:00,36.7,1.4,29.15,North,5,0.0,0.0,22,0.00,,,0.00,VWS V13.01,2013-11-25 22:02:00,
2013-11-25 16:07:00,36.9,1.6,29.15,North,5,0.0,0.0,22,0.00,,,0.00,VWS V13.01,2013-11-25 22:07:00,
2013-11-25 16:12:00,36.9,1.6,29.15,North,4,0.0,0.0,22,0.00,,,0.00,VWS V13.01,2013-11-25 22:12:00,
2013-11-25 16:17:00,36.5,1.3,29.15,North,5,0.0,0.0,22,0.00,,,0.00,VWS V13.01,2013-11-25 22:17:00,
2013-11-25 16:22:00,36.3,1.1,29.15,North,5,0.0,0.0,22,0.00,,,0.00,VWS V13.01,2013-11-25 22:22:00,
2013-11-25 16:27:00,36.1,1.0,29.15,North,6,0.0,0.0,22,0.00,,,0.00,VWS V13.01,2013-11-25 22:27:00,
2013-11-25 16:32:00,36.1,1.0,29.18,North,5,0.0,0.0,22,0.00,,,0.00,VWS V13.01,2013-11-25 22:32:00,
2013-11-25 16:37:00,36.1,1.0,29.18,North,5,0.0,0.0,22,0.00,,,0.00,VWS V13.01,2013-11-25 22:37:00,
2013-11-25 16:42:00,36.0,0.8,29.18,North,5,0.0,0.0,22,0.00,,,0.00,VWS V13.01,2013-11-25 22:42:00,
2013-11-25 16:47:00,36.0,0.8,29.18,North,5,0.0,0.0,22,0.00,,,0.00,VWS V13.01,2013-11-25 22:47:00,
2013-11-25 16:52:00,36.0,0.8,29.18,North,5,0.0,0.0,22,0.00,,,0.00,VWS V13.01,2013-11-25 22:52:00,
2013-11-25 16:57:00,35.8,0.7,29.18,North,5,0.0,0.0,22,0.00,,,0.00,VWS V13.01,2013-11-25 22:57:00,
2013-11-25 17:02:00,35.8,0.7,29.18,North,5,0.0,0.0,22,0.00,,,0.00,VWS V13.01,2013-11-25 23:02:00,
2013-11-25 17:07:00,35.8,0.7,29.18,North,5,0.0,0.0,22,0.00,,,0.00,VWS V13.01,2013-11-25 23:07:00,
2013-11-25 17:12:00,35.6,0.5,29.18,North,5,0.0,0.0,22,0.00,,,0.00,VWS V13.01,2013-11-25 23:12:00,
2013-11-25 17:17:00,35.4,0.4,29.18,North,6,0.0,0.0,22,0.00,,,0.00,VWS V13.01,2013-11-25 23:17:00,
2013-11-25 17:22:00,35.1,0.1,29.18,North,5,0.0,0.0,22,0.00,,,0.00,VWS V13.01,2013-11-25 23:22:00,
2013-11-25 17:28:00,34.9,-0.1,29.18,North,5,0.0,0.0,22,0.00,,,0.00,VWS V13.01,2013-11-25 23:28:00,
2013-11-25 17:33:00,34.9,-0.1,29.18,North,6,0.0,0.0,22,0.00,,,0.00,VWS V13.01,2013-11-25 23:33:00,
2013-11-25 17:38:00,34.7,-0.2,29.18,North,5,0.0,0.0,22,0.00,,,0.00,VWS V13.01,2013-11-25 23:38:00,
2013-11-25 17:43:00,34.5,-0.4,29.18,North,5,0.0,0.0,22,0.00,,,0.00,VWS V13.01,2013-11-25 23:43:00,
2013-11-25 17:48:00,34.3,-0.6,29.18,North,5,0.0,0.0,22,0.00,,,0.00,VWS V13.01,2013-11-25 23:48:00,
2013-11-25 17:53:00,34.0,1.9,29.18,North,5,0.0,0.0,25,0.00,,,0.00,VWS V13.01,2013-11-25 23:53:00,
2013-11-25 17:58:00,33.8,1.7,29.18,North,5,0.0,0.0,25,0.00,,,0.00,VWS V13.01,2013-11-25 23:58:00,
2013-11-25 18:04:00,33.8,1.7,29.18,North,5,0.0,0.0,25,0.00,,,0.00,VWS V13.01,2013-11-26 00:04:00,
2013-11-25 18:09:00,33.6,1.6,29.18,North,5,0.0,0.0,25,0.00,,,0.00,VWS V13.01,2013-11-26 00:09:00,
2013-11-25 18:14:00,33.4,1.4,29.18,North,5,0.0,0.0,25,0.00,,,0.00,VWS V13.01,2013-11-26 00:14:00,
2013-11-25 18:19:00,33.3,1.2,29.18,North,5,0.0,0.0,25,0.00,,,0.00,VWS V13.01,2013-11-26 00:19:00,
2013-11-25 18:24:00,33.3,1.2,29.18,North,5,0.0,0.0,25,0.00,,,0.00,VWS V13.01,2013-11-26 00:24:00,
2013-11-25 18:29:00,33.3,1.2,29.18,North,5,0.0,0.0,25,0.00,,,0.00,VWS V13.01,2013-11-26 00:29:00,
2013-11-25 18:34:00,33.1,1.1,29.18,North,5,0.0,0.0,25,0.00,,,0.00,VWS V13.01,2013-11-26 00:34:00,
2013-11-25 18:40:00,32.9,0.9,29.18,North,5,0.0,0.0,25,0.00,,,0.00,VWS V13.01,2013-11-26 00:40:00,
2013-11-25 18:45:00,32.7,0.8,29.18,North,5,0.0,0.0,25,0.00,,,0.00,VWS V13.01,2013-11-26 00:45:00,
2013-11-25 18:50:00,32.7,0.8,29.18,North,5,0.0,0.0,25,0.00,,,0.00,VWS V13.01,2013-11-26 00:50:00,
2013-11-25 18:55:00,32.5,3.1,29.18,North,4,0.0,0.0,28,0.00,,,0.00,VWS V13.01,2013-11-26 00:55:00,
2013-11-25 19:00:00,32.5,3.1,29.18,North,4,0.0,0.0,28,0.00,,,0.00,VWS V13.01,2013-11-26 01:00:00,
2013-11-25 19:05:00,32.4,2.9,29.18,North,4,0.0,0.0,28,0.00,,,0.00,VWS V13.01,2013-11-26 01:05:00,
2013-11-25 19:10:00,32.4,2.9,29.18,North,4,0.0,0.0,28,0.00,,,0.00,VWS V13.01,2013-11-26 01:10:00,
2013-11-25 19:15:00,32.2,2.8,29.18,North,4,0.0,0.0,28,0.00,,,0.00,VWS V13.01,2013-11-26 01:15:00,
2013-11-25 19:20:00,32.2,4.2,29.18,North,4,0.0,0.0,30,0.00,,,0.00,VWS V13.01,2013-11-26 01:20:00,
2013-11-25 19:26:00,32.2,4.2,29.18,North,4,0.0,0.0,30,0.00,,,0.00,VWS V13.01,2013-11-26 01:26:00,
2013-11-25 19:31:00,32.4,4.4,29.18,North,4,0.0,0.0,30,0.00,,,0.00,VWS V13.01,2013-11-26 01:31:00,
2013-11-25 19:36:00,32.2,4.2,29.18,North,4,0.0,0.0,30,0.00,,,0.00,VWS V13.01,2013-11-26 01:36:00,
2013-11-25 19:41:00,32.2,4.2,29.18,North,4,0.0,0.0,30,0.00,,,0.00,VWS V13.01,2013-11-26 01:41:00,
2013-11-25 19:46:00,32.2,4.2,29.18,North,4,0.0,0.0,30,0.00,,,0.00,VWS V13.01,2013-11-26 01:46:00,
2013-11-25 19:51:00,32.2,4.2,29.18,North,4,0.0,0.0,30,0.00,,,0.00,VWS V13.01,2013-11-26 01:51:00,
2013-11-25 19:56:00,32.2,4.2,29.18,North,4,0.0,0.0,30,0.00,,,0.00,VWS V13.01,2013-11-26 01:56:00,
2013-11-25 20:01:00,32.2,4.2,29.18,North,4,0.0,0.0,30,0.00,,,0.00,VWS V13.01,2013-11-26 02:01:00,
2013-11-25 20:06:00,32.0,4.1,29.18,North,4,0.0,0.0,30,0.00,,,0.00,VWS V13.01,2013-11-26 02:06:00,
2013-11-25 20:11:00,32.0,4.1,29.18,North,4,0.0,0.0,30,0.00,,,0.00,VWS V13.01,2013-11-26 02:11:00,
2013-11-25 20:16:00,32.0,4.1,29.18,North,4,0.0,0.0,30,0.00,,,0.00,VWS V13.01,2013-11-26 02:16:00,
2013-11-25 20:21:00,31.8,3.9,29.18,North,4,0.0,0.0,30,0.00,,,0.00,VWS V13.01,2013-11-26 02:21:00,
2013-11-25 20:26:00,31.8,3.9,29.18,North,5,0.0,0.0,30,0.00,,,0.00,VWS V13.01,2013-11-26 02:26:00,
2013-11-25 20:31:00,31.8,3.9,29.18,North,4,0.0,0.0,30,0.00,,,0.00,VWS V13.01,2013-11-26 02:31:00,
2013-11-25 20:36:00,31.8,3.9,29.18,North,4,0.0,0.0,30,0.00,,,0.00,VWS V13.01,2013-11-26 02:36:00,
2013-11-25 20:42:00,31.8,3.9,29.18,North,4,0.0,0.0,30,0.00,,,0.00,VWS V13.01,2013-11-26 02:42:00,
2013-11-25 20:47:00,31.8,3.9,29.18,North,4,0.0,0.0,30,0.00,,,0.00,VWS V13.01,2013-11-26 02:47:00,
2013-11-25 20:52:00,31.8,3.9,29.18,North,4,0.0,0.0,30,0.00,,,0.00,VWS V13.01,2013-11-26 02:52:00,
2013-11-25 20:57:00,31.6,3.8,29.18,North,4,0.0,0.0,30,0.00,,,0.00,VWS V13.01,2013-11-26 02:57:00,
2013-11-25 21:02:00,31.5,3.6,29.18,North,4,0.0,0.0,30,0.00,,,0.00,VWS V13.01,2013-11-26 03:02:00,
2013-11-25 21:07:00,31.5,3.6,29.18,North,4,0.0,0.0,30,0.00,,,0.00,VWS V13.01,2013-11-26 03:07:00,
2013-11-25 21:12:00,31.5,4.3,29.18,North,5,0.0,0.0,31,0.00,,,0.00,VWS V13.01,2013-11-26 03:12:00,
2013-11-25 21:17:00,31.5,4.3,29.18,North,5,0.0,0.0,31,0.00,,,0.00,VWS V13.01,2013-11-26 03:17:00,
2013-11-25 21:22:00,31.5,4.3,29.18,North,4,0.0,0.0,31,0.00,,,0.00,VWS V13.01,2013-11-26 03:22:00,
2013-11-25 21:27:00,31.6,4.5,29.18,North,4,0.0,0.0,31,0.00,,,0.00,VWS V13.01,2013-11-26 03:27:00,
2013-11-25 21:32:00,31.6,4.5,29.18,North,5,0.0,0.0,31,0.00,,,0.00,VWS V13.01,2013-11-26 03:32:00,
2013-11-25 21:37:00,31.8,4.6,29.18,North,4,0.0,0.0,31,0.00,,,0.00,VWS V13.01,2013-11-26 03:37:00,
2013-11-25 21:42:00,31.8,4.6,29.18,North,5,0.0,0.0,31,0.00,,,0.00,VWS V13.01,2013-11-26 03:42:00,
2013-11-25 21:47:00,31.8,4.6,29.18,North,4,0.0,0.0,31,0.00,,,0.00,VWS V13.01,2013-11-26 03:47:00,
2013-11-25 21:53:00,31.8,4.6,29.18,North,5,0.0,0.0,31,0.00,,,0.00,VWS V13.01,2013-11-26 03:53:00,
2013-11-25 21:58:00,31.6,4.5,29.18,North,6,0.0,0.0,31,0.00,,,0.00,VWS V13.01,2013-11-26 03:58:00,
2013-11-25 22:03:00,31.5,4.3,29.18,North,4,0.0,0.0,31,0.00,,,0.00,VWS V13.01,2013-11-26 04:03:00,
2013-11-25 22:08:00,31.6,4.5,29.18,North,5,0.0,0.0,31,0.00,,,0.00,VWS V13.01,2013-11-26 04:08:00,
2013-11-25 22:13:00,31.6,4.5,29.18,North,7,0.0,0.0,31,0.00,,,0.00,VWS V13.01,2013-11-26 04:13:00,
2013-11-25 22:18:00,31.5,4.3,29.18,North,5,0.0,0.0,31,0.00,,,0.00,VWS V13.01,2013-11-26 04:18:00,
2013-11-25 22:23:00,31.5,4.3,29.18,North,6,0.0,0.0,31,0.00,,,0.00,VWS V13.01,2013-11-26 04:23:00,
2013-11-25 22:28:00,31.3,4.2,29.18,North,6,0.0,0.0,31,0.00,,,0.00,VWS V13.01,2013-11-26 04:28:00,
2013-11-25 22:33:00,31.3,4.2,29.18,North,7,0.0,0.0,31,0.00,,,0.00,VWS V13.01,2013-11-26 04:33:00,
2013-11-25 22:38:00,31.1,4.0,29.18,North,8,0.0,0.0,31,0.00,,,0.00,VWS V13.01,2013-11-26 04:38:00,
2013-11-25 22:43:00,31.1,4.0,29.18,North,8,0.0,0.0,31,0.00,,,0.00,VWS V13.01,2013-11-26 04:43:00,
2013-11-25 22:48:00,31.1,4.0,29.18,North,9,0.0,0.0,31,0.00,,,0.00,VWS V13.01,2013-11-26 04:48:00,
2013-11-25 22:53:00,30.9,3.8,29.18,North,10,0.0,0.0,31,0.00,,,0.00,VWS V13.01,2013-11-26 04:53:00,
2013-11-25 22:58:00,30.6,3.5,29.18,North,10,0.0,0.0,31,0.00,,,0.00,VWS V13.01,2013-11-26 04:58:00,
2013-11-25 23:01:00,30.6,3.5,29.18,North,10,0.0,0.0,31,0.00,,,0.00,VWS V13.01,2013-11-26 05:01:00,
2013-11-25 23:02:00,30.6,3.5,29.18,North,10,0.0,0.0,31,0.00,,,0.00,VWS V13.01,2013-11-26 05:02:00,
2013-11-25 23:03:00,30.4,3.4,29.18,North,10,0.0,0.0,31,0.00,,,0.00,VWS V13.01,2013-11-26 05:03:00,
2013-11-25 23:09:00,30.2,3.2,29.18,North,10,0.0,0.0,31,0.00,,,0.00,VWS V13.01,2013-11-26 05:09:00,
2013-11-25 23:14:00,30.2,3.2,29.18,North,10,0.0,0.0,31,0.00,,,0.00,VWS V13.01,2013-11-26 05:14:00,
2013-11-25 23:19:00,30.0,3.1,29.18,North,10,0.0,0.0,31,0.00,,,0.00,VWS V13.01,2013-11-26 05:19:00,
2013-11-25 23:24:00,29.8,2.9,29.18,North,10,0.0,0.0,31,0.00,,,0.00,VWS V13.01,2013-11-26 05:24:00,
2013-11-25 23:29:00,29.5,2.6,29.18,North,10,0.0,0.0,31,0.00,,,0.00,VWS V13.01,2013-11-26 05:29:00,
2013-11-25 23:34:00,29.5,2.6,29.18,North,10,0.0,0.0,31,0.00,,,0.00,VWS V13.01,2013-11-26 05:34:00,
2013-11-25 23:39:00,29.1,2.3,29.18,North,10,0.0,0.0,31,0.00,,,0.00,VWS V13.01,2013-11-26 05:39:00,
2013-11-25 23:44:00,28.9,2.1,29.18,North,10,0.0,0.0,31,0.00,,,0.00,VWS V13.01,2013-11-26 05:44:00,
2013-11-25 23:49:00,28.9,2.1,29.18,North,10,0.0,0.0,31,0.00,,,0.00,VWS V13.01,2013-11-26 05:49:00,
2013-11-25 23:54:00,28.6,1.8,29.18,North,10,0.0,0.0,31,0.00,,,0.00,VWS V13.01,2013-11-26 05:54:00,
2013-11-25 23:59:00,28.6,1.8,29.18,North,10,0.0,0.0,31,0.00,,,0.00,VWS V13.01,2013-11-26 05:59:00,